sensor_id;sensor_type;location;lat;lon;timestamp;P1;durP1;ratioP1;P2;durP2;ratioP2
42978;SDS011;28616;44.746;19.678;2023-06-10T00:02:10;15.20;;;8.45;;
42978;SDS011;28616;44.746;19.678;2023-06-10T00:04:36;17.48;;;8.32;;
42978;SDS011;28616;44.746;19.678;2023-06-10T00:07:03;19.08;;;7.88;;
42978;SDS011;28616;44.746;19.678;2023-06-10T00:09:33;15.83;;;7.97;;
42978;SDS011;28616;44.746;19.678;2023-06-10T00:12:01;16.02;;;9.32;;
42978;SDS011;28616;44.746;19.678;2023-06-10T00:14:28;16.45;;;8.15;;
42978;SDS011;28616;44.746;19.678;2023-06-10T00:16:54;18.13;;;8.80;;
42978;SDS011;28616;44.746;19.678;2023-06-10T00:19:20;12.68;;;7.53;;
42978;SDS011;28616;44.746;19.678;2023-06-10T00:21:50;16.67;;;7.78;;
42978;SDS011;28616;44.746;19.678;2023-06-10T00:24:17;14.15;;;8.55;;
42978;SDS011;28616;44.746;19.678;2023-06-10T00:26:43;11.48;;;7.85;;
42978;SDS011;28616;44.746;19.678;2023-06-10T00:29:09;17.00;;;8.15;;
42978;SDS011;28616;44.746;19.678;2023-06-10T00:31:36;13.55;;;8.27;;
42978;SDS011;28616;44.746;19.678;2023-06-10T00:34:02;15.40;;;7.90;;
42978;SDS011;28616;44.746;19.678;2023-06-10T00:36:28;14.65;;;7.70;;
42978;SDS011;28616;44.746;19.678;2023-06-10T00:38:55;23.95;;;8.30;;
42978;SDS011;28616;44.746;19.678;2023-06-10T00:41:21;15.38;;;8.95;;
42978;SDS011;28616;44.746;19.678;2023-06-10T00:43:46;14.52;;;9.00;;
42978;SDS011;28616;44.746;19.678;2023-06-10T00:46:12;16.70;;;8.52;;
42978;SDS011;28616;44.746;19.678;2023-06-10T00:48:41;16.63;;;9.40;;
42978;SDS011;28616;44.746;19.678;2023-06-10T00:51:08;14.48;;;8.63;;
42978;SDS011;28616;44.746;19.678;2023-06-10T00:53:39;16.25;;;8.38;;
42978;SDS011;28616;44.746;19.678;2023-06-10T00:56:06;16.33;;;8.25;;
42978;SDS011;28616;44.746;19.678;2023-06-10T00:58:32;16.98;;;8.13;;
42978;SDS011;28616;44.746;19.678;2023-06-10T01:00:58;14.30;;;8.63;;
42978;SDS011;28616;44.746;19.678;2023-06-10T01:03:24;14.70;;;9.30;;
42978;SDS011;28616;44.746;19.678;2023-06-10T01:05:52;20.63;;;9.10;;
42978;SDS011;28616;44.746;19.678;2023-06-10T01:11:07;17.10;;;8.23;;
42978;SDS011;28616;44.746;19.678;2023-06-10T01:13:36;13.32;;;8.95;;
42978;SDS011;28616;44.746;19.678;2023-06-10T01:16:06;19.00;;;9.35;;
42978;SDS011;28616;44.746;19.678;2023-06-10T01:18:32;21.75;;;9.90;;
42978;SDS011;28616;44.746;19.678;2023-06-10T01:20:58;14.93;;;8.57;;
42978;SDS011;28616;44.746;19.678;2023-06-10T01:23:24;17.20;;;9.27;;
42978;SDS011;28616;44.746;19.678;2023-06-10T01:25:56;15.52;;;9.00;;
42978;SDS011;28616;44.746;19.678;2023-06-10T01:33:47;16.73;;;8.73;;
42978;SDS011;28616;44.746;19.678;2023-06-10T01:36:17;16.08;;;8.98;;
42978;SDS011;28616;44.746;19.678;2023-06-10T01:38:45;12.43;;;8.82;;
42978;SDS011;28616;44.746;19.678;2023-06-10T01:41:13;14.70;;;9.02;;
42978;SDS011;28616;44.746;19.678;2023-06-10T01:43:42;18.02;;;9.55;;
42978;SDS011;28616;44.746;19.678;2023-06-10T01:46:10;15.85;;;8.88;;
42978;SDS011;28616;44.746;19.678;2023-06-10T01:48:36;16.50;;;9.48;;
42978;SDS011;28616;44.746;19.678;2023-06-10T01:51:02;12.07;;;8.73;;
42978;SDS011;28616;44.746;19.678;2023-06-10T01:53:28;18.83;;;8.77;;
42978;SDS011;28616;44.746;19.678;2023-06-10T01:55:54;13.68;;;8.75;;
42978;SDS011;28616;44.746;19.678;2023-06-10T01:58:20;21.02;;;8.80;;
42978;SDS011;28616;44.746;19.678;2023-06-10T02:00:46;15.85;;;8.40;;
42978;SDS011;28616;44.746;19.678;2023-06-10T02:03:11;15.63;;;7.80;;
42978;SDS011;28616;44.746;19.678;2023-06-10T02:05:37;13.32;;;8.18;;
42978;SDS011;28616;44.746;19.678;2023-06-10T02:08:04;18.40;;;8.48;;
42978;SDS011;28616;44.746;19.678;2023-06-10T02:10:30;17.38;;;7.82;;
42978;SDS011;28616;44.746;19.678;2023-06-10T02:12:56;16.42;;;8.07;;
42978;SDS011;28616;44.746;19.678;2023-06-10T02:15:21;15.60;;;8.40;;
42978;SDS011;28616;44.746;19.678;2023-06-10T02:17:47;27.50;;;9.98;;
42978;SDS011;28616;44.746;19.678;2023-06-10T02:20:14;26.63;;;11.98;;
42978;SDS011;28616;44.746;19.678;2023-06-10T02:22:40;23.17;;;12.30;;
42978;SDS011;28616;44.746;19.678;2023-06-10T02:25:06;23.27;;;11.27;;
42978;SDS011;28616;44.746;19.678;2023-06-10T02:27:32;20.55;;;9.73;;
42978;SDS011;28616;44.746;19.678;2023-06-10T02:29:58;23.30;;;9.35;;
42978;SDS011;28616;44.746;19.678;2023-06-10T02:32:23;18.80;;;9.07;;
42978;SDS011;28616;44.746;19.678;2023-06-10T02:34:50;14.82;;;8.90;;
42978;SDS011;28616;44.746;19.678;2023-06-10T02:37:16;16.40;;;8.35;;
42978;SDS011;28616;44.746;19.678;2023-06-10T02:39:42;15.68;;;9.38;;
42978;SDS011;28616;44.746;19.678;2023-06-10T02:42:08;15.10;;;9.52;;
42978;SDS011;28616;44.746;19.678;2023-06-10T02:44:35;24.15;;;9.32;;
42978;SDS011;28616;44.746;19.678;2023-06-10T02:47:00;16.63;;;9.32;;
42978;SDS011;28616;44.746;19.678;2023-06-10T02:49:26;19.15;;;9.88;;
42978;SDS011;28616;44.746;19.678;2023-06-10T02:51:55;21.20;;;9.90;;
42978;SDS011;28616;44.746;19.678;2023-06-10T02:54:22;21.15;;;11.50;;
42978;SDS011;28616;44.746;19.678;2023-06-10T02:56:48;19.08;;;11.63;;
42978;SDS011;28616;44.746;19.678;2023-06-10T02:59:14;24.40;;;12.25;;
42978;SDS011;28616;44.746;19.678;2023-06-10T03:01:40;23.55;;;15.13;;
42978;SDS011;28616;44.746;19.678;2023-06-10T03:04:06;33.72;;;17.23;;
42978;SDS011;28616;44.746;19.678;2023-06-10T03:06:32;28.30;;;17.15;;
42978;SDS011;28616;44.746;19.678;2023-06-10T03:09:02;26.45;;;16.55;;
42978;SDS011;28616;44.746;19.678;2023-06-10T03:11:34;28.67;;;16.92;;
42978;SDS011;28616;44.746;19.678;2023-06-10T03:14:01;28.42;;;17.40;;
42978;SDS011;28616;44.746;19.678;2023-06-10T03:16:26;33.30;;;16.75;;
42978;SDS011;28616;44.746;19.678;2023-06-10T03:18:53;32.20;;;17.25;;
42978;SDS011;28616;44.746;19.678;2023-06-10T03:21:19;27.48;;;18.42;;
42978;SDS011;28616;44.746;19.678;2023-06-10T03:23:45;27.42;;;17.80;;
42978;SDS011;28616;44.746;19.678;2023-06-10T03:26:11;29.42;;;18.05;;
42978;SDS011;28616;44.746;19.678;2023-06-10T03:28:39;29.77;;;18.20;;
42978;SDS011;28616;44.746;19.678;2023-06-10T03:31:05;26.92;;;17.65;;
42978;SDS011;28616;44.746;19.678;2023-06-10T03:33:31;35.13;;;18.17;;
42978;SDS011;28616;44.746;19.678;2023-06-10T03:35:59;30.90;;;18.33;;
42978;SDS011;28616;44.746;19.678;2023-06-10T03:38:25;30.40;;;19.00;;
42978;SDS011;28616;44.746;19.678;2023-06-10T03:40:50;30.08;;;19.83;;
42978;SDS011;28616;44.746;19.678;2023-06-10T03:43:16;29.48;;;18.80;;
42978;SDS011;28616;44.746;19.678;2023-06-10T03:45:42;32.67;;;18.40;;
42978;SDS011;28616;44.746;19.678;2023-06-10T03:48:08;33.05;;;20.58;;
42978;SDS011;28616;44.746;19.678;2023-06-10T03:50:34;30.20;;;19.63;;
42978;SDS011;28616;44.746;19.678;2023-06-10T03:53:03;30.23;;;18.23;;
42978;SDS011;28616;44.746;19.678;2023-06-10T03:55:29;30.35;;;17.98;;
42978;SDS011;28616;44.746;19.678;2023-06-10T03:57:56;32.88;;;16.92;;
42978;SDS011;28616;44.746;19.678;2023-06-10T04:00:22;27.08;;;15.20;;
42978;SDS011;28616;44.746;19.678;2023-06-10T04:02:47;22.38;;;15.40;;
42978;SDS011;28616;44.746;19.678;2023-06-10T04:05:18;22.50;;;15.07;;
42978;SDS011;28616;44.746;19.678;2023-06-10T04:07:47;27.50;;;14.98;;
42978;SDS011;28616;44.746;19.678;2023-06-10T04:10:13;28.52;;;14.40;;
42978;SDS011;28616;44.746;19.678;2023-06-10T04:12:40;23.42;;;14.90;;
42978;SDS011;28616;44.746;19.678;2023-06-10T04:15:07;25.00;;;14.50;;
42978;SDS011;28616;44.746;19.678;2023-06-10T04:17:33;27.92;;;14.10;;
42978;SDS011;28616;44.746;19.678;2023-06-10T04:19:59;26.45;;;14.15;;
42978;SDS011;28616;44.746;19.678;2023-06-10T04:22:25;36.53;;;15.38;;
42978;SDS011;28616;44.746;19.678;2023-06-10T04:24:52;26.77;;;15.00;;
42978;SDS011;28616;44.746;19.678;2023-06-10T04:27:18;27.50;;;14.82;;
42978;SDS011;28616;44.746;19.678;2023-06-10T04:29:43;26.83;;;14.32;;
42978;SDS011;28616;44.746;19.678;2023-06-10T04:32:11;27.95;;;15.35;;
42978;SDS011;28616;44.746;19.678;2023-06-10T04:34:36;23.75;;;14.15;;
42978;SDS011;28616;44.746;19.678;2023-06-10T04:37:05;25.40;;;14.20;;
42978;SDS011;28616;44.746;19.678;2023-06-10T04:39:31;22.85;;;14.55;;
42978;SDS011;28616;44.746;19.678;2023-06-10T04:41:57;26.63;;;13.80;;
42978;SDS011;28616;44.746;19.678;2023-06-10T04:44:24;24.88;;;14.85;;
42978;SDS011;28616;44.746;19.678;2023-06-10T04:46:49;28.20;;;14.25;;
42978;SDS011;28616;44.746;19.678;2023-06-10T04:49:15;28.38;;;14.52;;
42978;SDS011;28616;44.746;19.678;2023-06-10T04:51:41;23.33;;;13.40;;
42978;SDS011;28616;44.746;19.678;2023-06-10T04:54:07;27.48;;;13.20;;
42978;SDS011;28616;44.746;19.678;2023-06-10T04:56:33;22.98;;;13.45;;
42978;SDS011;28616;44.746;19.678;2023-06-10T04:58:59;20.88;;;13.40;;
42978;SDS011;28616;44.746;19.678;2023-06-10T05:01:25;28.63;;;14.48;;
42978;SDS011;28616;44.746;19.678;2023-06-10T05:03:52;22.85;;;13.48;;
42978;SDS011;28616;44.746;19.678;2023-06-10T05:06:18;23.73;;;13.10;;
42978;SDS011;28616;44.746;19.678;2023-06-10T05:08:44;24.27;;;13.38;;
42978;SDS011;28616;44.746;19.678;2023-06-10T05:11:10;22.92;;;13.07;;
42978;SDS011;28616;44.746;19.678;2023-06-10T05:13:36;24.08;;;13.15;;
42978;SDS011;28616;44.746;19.678;2023-06-10T05:16:01;25.63;;;12.98;;
42978;SDS011;28616;44.746;19.678;2023-06-10T05:18:29;25.50;;;13.32;;
42978;SDS011;28616;44.746;19.678;2023-06-10T05:20:54;20.52;;;11.93;;
42978;SDS011;28616;44.746;19.678;2023-06-10T05:23:20;19.85;;;11.68;;
42978;SDS011;28616;44.746;19.678;2023-06-10T05:25:46;21.67;;;12.05;;
42978;SDS011;28616;44.746;19.678;2023-06-10T05:28:12;20.35;;;12.02;;
42978;SDS011;28616;44.746;19.678;2023-06-10T05:30:38;18.50;;;12.10;;
42978;SDS011;28616;44.746;19.678;2023-06-10T05:33:04;17.17;;;12.20;;
42978;SDS011;28616;44.746;19.678;2023-06-10T05:35:30;19.30;;;11.35;;
42978;SDS011;28616;44.746;19.678;2023-06-10T05:37:56;22.67;;;12.80;;
42978;SDS011;28616;44.746;19.678;2023-06-10T05:40:22;21.80;;;11.63;;
42978;SDS011;28616;44.746;19.678;2023-06-10T05:42:48;19.50;;;11.80;;
42978;SDS011;28616;44.746;19.678;2023-06-10T05:45:14;18.75;;;11.77;;
42978;SDS011;28616;44.746;19.678;2023-06-10T05:47:40;22.75;;;10.65;;
42978;SDS011;28616;44.746;19.678;2023-06-10T05:50:06;23.60;;;12.32;;
42978;SDS011;28616;44.746;19.678;2023-06-10T05:52:33;19.65;;;12.27;;
42978;SDS011;28616;44.746;19.678;2023-06-10T05:55:00;19.52;;;12.13;;
42978;SDS011;28616;44.746;19.678;2023-06-10T05:57:26;20.98;;;12.68;;
42978;SDS011;28616;44.746;19.678;2023-06-10T05:59:52;19.60;;;10.85;;
42978;SDS011;28616;44.746;19.678;2023-06-10T06:02:18;21.80;;;11.85;;
42978;SDS011;28616;44.746;19.678;2023-06-10T06:04:43;20.02;;;11.70;;
42978;SDS011;28616;44.746;19.678;2023-06-10T06:07:14;18.13;;;11.65;;
42978;SDS011;28616;44.746;19.678;2023-06-10T06:09:42;15.97;;;10.97;;
42978;SDS011;28616;44.746;19.678;2023-06-10T06:12:07;18.02;;;10.27;;
42978;SDS011;28616;44.746;19.678;2023-06-10T06:14:37;14.70;;;9.25;;
42978;SDS011;28616;44.746;19.678;2023-06-10T06:17:06;14.50;;;8.25;;
42978;SDS011;28616;44.746;19.678;2023-06-10T06:19:32;15.27;;;9.25;;
42978;SDS011;28616;44.746;19.678;2023-06-10T06:21:58;16.20;;;9.20;;
42978;SDS011;28616;44.746;19.678;2023-06-10T06:24:24;18.40;;;9.82;;
42978;SDS011;28616;44.746;19.678;2023-06-10T06:26:50;16.20;;;9.60;;
42978;SDS011;28616;44.746;19.678;2023-06-10T06:29:15;18.48;;;10.38;;
42978;SDS011;28616;44.746;19.678;2023-06-10T06:31:41;18.67;;;11.20;;
42978;SDS011;28616;44.746;19.678;2023-06-10T06:34:07;19.10;;;10.48;;
42978;SDS011;28616;44.746;19.678;2023-06-10T06:36:33;16.80;;;9.98;;
42978;SDS011;28616;44.746;19.678;2023-06-10T06:38:58;14.88;;;9.88;;
42978;SDS011;28616;44.746;19.678;2023-06-10T06:41:27;17.67;;;9.15;;
42978;SDS011;28616;44.746;19.678;2023-06-10T06:43:53;13.85;;;8.45;;
42978;SDS011;28616;44.746;19.678;2023-06-10T06:46:20;15.88;;;8.15;;
42978;SDS011;28616;44.746;19.678;2023-06-10T06:48:47;11.55;;;7.68;;
42978;SDS011;28616;44.746;19.678;2023-06-10T06:51:13;10.75;;;7.68;;
42978;SDS011;28616;44.746;19.678;2023-06-10T06:53:39;11.05;;;6.68;;
42978;SDS011;28616;44.746;19.678;2023-06-10T06:56:09;11.38;;;7.10;;
42978;SDS011;28616;44.746;19.678;2023-06-10T06:58:36;13.05;;;6.40;;
42978;SDS011;28616;44.746;19.678;2023-06-10T07:01:02;9.80;;;6.60;;
42978;SDS011;28616;44.746;19.678;2023-06-10T07:03:28;14.65;;;7.28;;
42978;SDS011;28616;44.746;19.678;2023-06-10T07:05:53;12.77;;;6.15;;
42978;SDS011;28616;44.746;19.678;2023-06-10T07:08:19;8.55;;;4.70;;
42978;SDS011;28616;44.746;19.678;2023-06-10T07:10:45;11.52;;;4.25;;
42978;SDS011;28616;44.746;19.678;2023-06-10T07:13:11;9.75;;;4.15;;
42978;SDS011;28616;44.746;19.678;2023-06-10T07:15:36;11.35;;;4.20;;
42978;SDS011;28616;44.746;19.678;2023-06-10T07:18:03;7.47;;;4.15;;
42978;SDS011;28616;44.746;19.678;2023-06-10T07:20:29;9.60;;;4.57;;
42978;SDS011;28616;44.746;19.678;2023-06-10T07:22:55;11.73;;;4.95;;
42978;SDS011;28616;44.746;19.678;2023-06-10T07:25:20;10.73;;;4.93;;
42978;SDS011;28616;44.746;19.678;2023-06-10T07:27:46;8.93;;;4.45;;
42978;SDS011;28616;44.746;19.678;2023-06-10T07:30:12;8.40;;;4.38;;
42978;SDS011;28616;44.746;19.678;2023-06-10T07:32:39;8.93;;;5.10;;
42978;SDS011;28616;44.746;19.678;2023-06-10T07:35:08;11.77;;;4.82;;
42978;SDS011;28616;44.746;19.678;2023-06-10T07:37:37;7.85;;;4.65;;
42978;SDS011;28616;44.746;19.678;2023-06-10T07:40:04;9.13;;;5.15;;
42978;SDS011;28616;44.746;19.678;2023-06-10T07:42:31;10.52;;;5.38;;
42978;SDS011;28616;44.746;19.678;2023-06-10T07:44:58;8.70;;;5.45;;
42978;SDS011;28616;44.746;19.678;2023-06-10T07:47:24;9.88;;;5.80;;
42978;SDS011;28616;44.746;19.678;2023-06-10T07:49:50;10.20;;;4.70;;
42978;SDS011;28616;44.746;19.678;2023-06-10T07:52:16;9.88;;;4.63;;
42978;SDS011;28616;44.746;19.678;2023-06-10T07:54:42;11.35;;;5.53;;
42978;SDS011;28616;44.746;19.678;2023-06-10T07:57:09;9.75;;;4.82;;
42978;SDS011;28616;44.746;19.678;2023-06-10T07:59:35;7.53;;;4.63;;
42978;SDS011;28616;44.746;19.678;2023-06-10T08:02:01;7.95;;;4.90;;
42978;SDS011;28616;44.746;19.678;2023-06-10T08:04:27;8.23;;;4.15;;
42978;SDS011;28616;44.746;19.678;2023-06-10T08:06:55;7.05;;;4.53;;
42978;SDS011;28616;44.746;19.678;2023-06-10T08:09:22;9.50;;;4.75;;
42978;SDS011;28616;44.746;19.678;2023-06-10T08:11:48;9.35;;;4.20;;
42978;SDS011;28616;44.746;19.678;2023-06-10T08:14:15;5.88;;;3.97;;
42978;SDS011;28616;44.746;19.678;2023-06-10T08:16:42;10.15;;;4.07;;
42978;SDS011;28616;44.746;19.678;2023-06-10T08:19:08;6.03;;;3.40;;
42978;SDS011;28616;44.746;19.678;2023-06-10T08:21:35;6.60;;;4.10;;
42978;SDS011;28616;44.746;19.678;2023-06-10T08:24:08;6.68;;;4.20;;
42978;SDS011;28616;44.746;19.678;2023-06-10T08:26:34;7.45;;;3.85;;
42978;SDS011;28616;44.746;19.678;2023-06-10T08:29:01;7.85;;;3.97;;
42978;SDS011;28616;44.746;19.678;2023-06-10T08:31:27;7.72;;;4.18;;
42978;SDS011;28616;44.746;19.678;2023-06-10T08:33:53;8.70;;;4.20;;
42978;SDS011;28616;44.746;19.678;2023-06-10T08:36:19;8.60;;;4.25;;
42978;SDS011;28616;44.746;19.678;2023-06-10T08:38:45;6.63;;;4.00;;
42978;SDS011;28616;44.746;19.678;2023-06-10T08:41:12;6.97;;;4.15;;
42978;SDS011;28616;44.746;19.678;2023-06-10T08:46:06;8.85;;;4.28;;
42978;SDS011;28616;44.746;19.678;2023-06-10T08:48:34;5.65;;;3.80;;
42978;SDS011;28616;44.746;19.678;2023-06-10T08:51:01;6.80;;;3.83;;
42978;SDS011;28616;44.746;19.678;2023-06-10T08:53:29;5.47;;;3.88;;
42978;SDS011;28616;44.746;19.678;2023-06-10T08:55:58;6.85;;;3.90;;
42978;SDS011;28616;44.746;19.678;2023-06-10T08:58:26;8.70;;;3.83;;
42978;SDS011;28616;44.746;19.678;2023-06-10T09:00:53;7.47;;;3.55;;
42978;SDS011;28616;44.746;19.678;2023-06-10T09:03:19;6.57;;;3.67;;
42978;SDS011;28616;44.746;19.678;2023-06-10T09:05:45;6.25;;;3.70;;
42978;SDS011;28616;44.746;19.678;2023-06-10T09:08:11;6.75;;;4.05;;
42978;SDS011;28616;44.746;19.678;2023-06-10T09:10:38;7.03;;;4.00;;
42978;SDS011;28616;44.746;19.678;2023-06-10T09:13:04;7.40;;;3.72;;
42978;SDS011;28616;44.746;19.678;2023-06-10T09:15:31;5.07;;;3.50;;
42978;SDS011;28616;44.746;19.678;2023-06-10T09:17:57;5.47;;;2.97;;
42978;SDS011;28616;44.746;19.678;2023-06-10T09:20:24;6.50;;;3.40;;
42978;SDS011;28616;44.746;19.678;2023-06-10T09:22:51;5.07;;;3.30;;
42978;SDS011;28616;44.746;19.678;2023-06-10T09:25:17;6.32;;;3.05;;
42978;SDS011;28616;44.746;19.678;2023-06-10T09:27:47;4.47;;;3.00;;
42978;SDS011;28616;44.746;19.678;2023-06-10T09:30:25;5.25;;;3.28;;
42978;SDS011;28616;44.746;19.678;2023-06-10T09:32:55;4.50;;;2.45;;
42978;SDS011;28616;44.746;19.678;2023-06-10T09:35:22;7.18;;;3.20;;
42978;SDS011;28616;44.746;19.678;2023-06-10T09:37:50;5.97;;;3.08;;
42978;SDS011;28616;44.746;19.678;2023-06-10T09:40:16;4.78;;;3.10;;
42978;SDS011;28616;44.746;19.678;2023-06-10T09:42:42;8.30;;;2.88;;
42978;SDS011;28616;44.746;19.678;2023-06-10T09:45:08;5.45;;;2.75;;
42978;SDS011;28616;44.746;19.678;2023-06-10T09:47:34;5.75;;;3.05;;
42978;SDS011;28616;44.746;19.678;2023-06-10T09:50:00;5.78;;;2.63;;
42978;SDS011;28616;44.746;19.678;2023-06-10T09:52:27;7.65;;;3.17;;
42978;SDS011;28616;44.746;19.678;2023-06-10T09:54:58;4.78;;;3.20;;
42978;SDS011;28616;44.746;19.678;2023-06-10T09:57:25;10.43;;;3.53;;
42978;SDS011;28616;44.746;19.678;2023-06-10T09:59:52;3.03;;;2.28;;
42978;SDS011;28616;44.746;19.678;2023-06-10T10:02:19;3.25;;;2.50;;
42978;SDS011;28616;44.746;19.678;2023-06-10T10:04:45;7.78;;;2.85;;
42978;SDS011;28616;44.746;19.678;2023-06-10T10:07:11;3.97;;;2.60;;
42978;SDS011;28616;44.746;19.678;2023-06-10T10:09:38;5.65;;;2.67;;
42978;SDS011;28616;44.746;19.678;2023-06-10T10:12:13;5.82;;;3.05;;
42978;SDS011;28616;44.746;19.678;2023-06-10T10:14:42;4.15;;;2.70;;
42978;SDS011;28616;44.746;19.678;2023-06-10T10:17:10;3.65;;;2.50;;
42978;SDS011;28616;44.746;19.678;2023-06-10T10:19:40;3.95;;;2.70;;
42978;SDS011;28616;44.746;19.678;2023-06-10T10:22:10;4.25;;;2.50;;
42978;SDS011;28616;44.746;19.678;2023-06-10T10:24:38;2.97;;;2.15;;
42978;SDS011;28616;44.746;19.678;2023-06-10T10:27:06;4.90;;;2.50;;
42978;SDS011;28616;44.746;19.678;2023-06-10T10:29:38;4.13;;;2.70;;
42978;SDS011;28616;44.746;19.678;2023-06-10T10:32:04;3.60;;;2.40;;
42978;SDS011;28616;44.746;19.678;2023-06-10T10:34:37;3.42;;;2.35;;
42978;SDS011;28616;44.746;19.678;2023-06-10T10:37:06;5.50;;;2.72;;
42978;SDS011;28616;44.746;19.678;2023-06-10T10:39:33;4.40;;;2.60;;
42978;SDS011;28616;44.746;19.678;2023-06-10T10:41:59;6.03;;;2.67;;
42978;SDS011;28616;44.746;19.678;2023-06-10T10:44:28;5.15;;;2.65;;
42978;SDS011;28616;44.746;19.678;2023-06-10T10:46:54;5.30;;;3.42;;
42978;SDS011;28616;44.746;19.678;2023-06-10T10:49:22;3.03;;;2.20;;
42978;SDS011;28616;44.746;19.678;2023-06-10T10:51:55;5.28;;;2.20;;
42978;SDS011;28616;44.746;19.678;2023-06-10T10:54:28;5.38;;;2.38;;
42978;SDS011;28616;44.746;19.678;2023-06-10T10:57:29;7.00;;;2.55;;
42978;SDS011;28616;44.746;19.678;2023-06-10T11:04:47;4.13;;;2.65;;
42978;SDS011;28616;44.746;19.678;2023-06-10T11:07:14;2.92;;;2.15;;
42978;SDS011;28616;44.746;19.678;2023-06-10T11:10:01;2.80;;;1.92;;
42978;SDS011;28616;44.746;19.678;2023-06-10T11:15:09;5.13;;;2.10;;
42978;SDS011;28616;44.746;19.678;2023-06-10T11:17:35;3.28;;;2.20;;
42978;SDS011;28616;44.746;19.678;2023-06-10T11:20:01;4.65;;;2.42;;
42978;SDS011;28616;44.746;19.678;2023-06-10T11:22:27;6.10;;;2.25;;
42978;SDS011;28616;44.746;19.678;2023-06-10T11:24:54;3.15;;;2.17;;
42978;SDS011;28616;44.746;19.678;2023-06-10T11:27:23;3.40;;;2.25;;
42978;SDS011;28616;44.746;19.678;2023-06-10T11:32:22;3.00;;;2.03;;
42978;SDS011;28616;44.746;19.678;2023-06-10T11:34:52;2.55;;;2.00;;
42978;SDS011;28616;44.746;19.678;2023-06-10T11:37:19;4.25;;;2.10;;
42978;SDS011;28616;44.746;19.678;2023-06-10T11:39:45;3.40;;;1.90;;
42978;SDS011;28616;44.746;19.678;2023-06-10T11:42:12;2.85;;;2.20;;
42978;SDS011;28616;44.746;19.678;2023-06-10T11:44:38;2.92;;;1.98;;
42978;SDS011;28616;44.746;19.678;2023-06-10T11:47:04;3.97;;;2.30;;
42978;SDS011;28616;44.746;19.678;2023-06-10T11:49:30;4.10;;;2.25;;
42978;SDS011;28616;44.746;19.678;2023-06-10T11:51:56;4.90;;;1.80;;
42978;SDS011;28616;44.746;19.678;2023-06-10T11:54:22;3.30;;;1.80;;
42978;SDS011;28616;44.746;19.678;2023-06-10T11:56:49;4.18;;;2.05;;
42978;SDS011;28616;44.746;19.678;2023-06-10T11:59:15;2.58;;;1.77;;
42978;SDS011;28616;44.746;19.678;2023-06-10T12:01:42;3.22;;;1.80;;
42978;SDS011;28616;44.746;19.678;2023-06-10T12:04:15;1.83;;;1.42;;
42978;SDS011;28616;44.746;19.678;2023-06-10T12:06:49;4.88;;;1.60;;
42978;SDS011;28616;44.746;19.678;2023-06-10T12:09:20;1.67;;;1.33;;
42978;SDS011;28616;44.746;19.678;2023-06-10T12:12:03;2.38;;;1.70;;
42978;SDS011;28616;44.746;19.678;2023-06-10T12:20:08;2.67;;;1.55;;
42978;SDS011;28616;44.746;19.678;2023-06-10T12:22:41;3.30;;;1.60;;
42978;SDS011;28616;44.746;19.678;2023-06-10T12:25:07;3.03;;;1.60;;
42978;SDS011;28616;44.746;19.678;2023-06-10T12:27:34;2.35;;;1.70;;
42978;SDS011;28616;44.746;19.678;2023-06-10T12:30:02;3.17;;;1.65;;
42978;SDS011;28616;44.746;19.678;2023-06-10T12:32:42;3.15;;;1.63;;
42978;SDS011;28616;44.746;19.678;2023-06-10T12:35:09;3.33;;;1.63;;
42978;SDS011;28616;44.746;19.678;2023-06-10T12:37:37;3.17;;;1.30;;
42978;SDS011;28616;44.746;19.678;2023-06-10T12:40:04;3.15;;;1.50;;
42978;SDS011;28616;44.746;19.678;2023-06-10T12:42:35;2.35;;;1.40;;
42978;SDS011;28616;44.746;19.678;2023-06-10T12:45:02;2.42;;;1.60;;
42978;SDS011;28616;44.746;19.678;2023-06-10T12:47:29;3.30;;;1.83;;
42978;SDS011;28616;44.746;19.678;2023-06-10T12:49:57;2.25;;;1.42;;
42978;SDS011;28616;44.746;19.678;2023-06-10T12:52:24;2.08;;;1.45;;
42978;SDS011;28616;44.746;19.678;2023-06-10T12:54:50;4.03;;;1.70;;
42978;SDS011;28616;44.746;19.678;2023-06-10T12:57:17;2.95;;;1.50;;
42978;SDS011;28616;44.746;19.678;2023-06-10T12:59:43;3.35;;;1.40;;
42978;SDS011;28616;44.746;19.678;2023-06-10T13:02:15;2.83;;;1.70;;
42978;SDS011;28616;44.746;19.678;2023-06-10T13:04:45;4.63;;;1.50;;
42978;SDS011;28616;44.746;19.678;2023-06-10T13:07:11;3.83;;;1.60;;
42978;SDS011;28616;44.746;19.678;2023-06-10T13:09:37;5.70;;;1.45;;
42978;SDS011;28616;44.746;19.678;2023-06-10T13:12:04;3.65;;;1.50;;
42978;SDS011;28616;44.746;19.678;2023-06-10T13:14:30;2.78;;;1.40;;
42978;SDS011;28616;44.746;19.678;2023-06-10T13:16:56;3.20;;;1.70;;
42978;SDS011;28616;44.746;19.678;2023-06-10T13:19:23;2.10;;;1.40;;
42978;SDS011;28616;44.746;19.678;2023-06-10T13:21:49;2.30;;;1.50;;
42978;SDS011;28616;44.746;19.678;2023-06-10T13:24:15;2.65;;;1.52;;
42978;SDS011;28616;44.746;19.678;2023-06-10T13:26:41;3.50;;;1.80;;
42978;SDS011;28616;44.746;19.678;2023-06-10T13:29:07;3.17;;;1.80;;
42978;SDS011;28616;44.746;19.678;2023-06-10T13:31:38;4.88;;;1.70;;
42978;SDS011;28616;44.746;19.678;2023-06-10T13:34:05;2.75;;;1.40;;
42978;SDS011;28616;44.746;19.678;2023-06-10T13:36:31;4.97;;;1.85;;
42978;SDS011;28616;44.746;19.678;2023-06-10T13:38:57;3.50;;;1.77;;
42978;SDS011;28616;44.746;19.678;2023-06-10T13:41:24;2.60;;;1.60;;
42978;SDS011;28616;44.746;19.678;2023-06-10T13:43:53;2.83;;;1.58;;
42978;SDS011;28616;44.746;19.678;2023-06-10T13:46:19;2.00;;;1.50;;
42978;SDS011;28616;44.746;19.678;2023-06-10T13:48:46;2.67;;;1.60;;
42978;SDS011;28616;44.746;19.678;2023-06-10T13:51:13;3.35;;;1.83;;
42978;SDS011;28616;44.746;19.678;2023-06-10T13:53:39;2.60;;;2.00;;
42978;SDS011;28616;44.746;19.678;2023-06-10T13:56:08;3.60;;;1.88;;
42978;SDS011;28616;44.746;19.678;2023-06-10T13:58:36;2.28;;;1.77;;
42978;SDS011;28616;44.746;19.678;2023-06-10T14:01:05;2.75;;;1.60;;
42978;SDS011;28616;44.746;19.678;2023-06-10T14:03:31;2.22;;;1.70;;
42978;SDS011;28616;44.746;19.678;2023-06-10T14:05:57;2.35;;;1.60;;
42978;SDS011;28616;44.746;19.678;2023-06-10T14:08:23;4.25;;;1.77;;
42978;SDS011;28616;44.746;19.678;2023-06-10T14:10:50;2.85;;;1.60;;
42978;SDS011;28616;44.746;19.678;2023-06-10T14:13:17;4.05;;;1.77;;
42978;SDS011;28616;44.746;19.678;2023-06-10T14:15:43;11.93;;;3.00;;
42978;SDS011;28616;44.746;19.678;2023-06-10T14:18:10;5.28;;;2.83;;
42978;SDS011;28616;44.746;19.678;2023-06-10T14:20:36;3.53;;;1.83;;
42978;SDS011;28616;44.746;19.678;2023-06-10T14:23:03;2.45;;;1.70;;
42978;SDS011;28616;44.746;19.678;2023-06-10T14:25:29;3.47;;;2.10;;
42978;SDS011;28616;44.746;19.678;2023-06-10T14:27:55;5.03;;;1.60;;
42978;SDS011;28616;44.746;19.678;2023-06-10T14:30:22;3.03;;;1.90;;
42978;SDS011;28616;44.746;19.678;2023-06-10T14:32:48;2.97;;;1.95;;
42978;SDS011;28616;44.746;19.678;2023-06-10T14:35:14;5.50;;;1.88;;
42978;SDS011;28616;44.746;19.678;2023-06-10T14:37:41;2.28;;;1.40;;
42978;SDS011;28616;44.746;19.678;2023-06-10T14:40:07;2.22;;;1.63;;
42978;SDS011;28616;44.746;19.678;2023-06-10T14:42:33;2.80;;;1.70;;
42978;SDS011;28616;44.746;19.678;2023-06-10T14:44:59;4.88;;;1.90;;
42978;SDS011;28616;44.746;19.678;2023-06-10T14:47:26;3.05;;;1.80;;
42978;SDS011;28616;44.746;19.678;2023-06-10T14:49:52;3.03;;;1.65;;